createdAt,value
2019-06-20T00:00:52.379Z,18.60
2019-06-20T00:03:21.636Z,18.60
2019-06-20T00:05:50.930Z,18.61
2019-06-20T00:08:20.193Z,18.62
2019-06-20T00:10:49.297Z,18.58
2019-06-20T00:13:18.886Z,18.58
2019-06-20T00:15:48.043Z,18.60
2019-06-20T00:18:17.408Z,18.53
2019-06-20T00:20:46.561Z,18.38
2019-06-20T00:23:15.722Z,18.33
2019-06-20T00:25:44.900Z,18.28
2019-06-20T00:28:14.129Z,18.22
2019-06-20T00:30:43.271Z,18.19
2019-06-20T00:33:12.453Z,18.23
2019-06-20T00:35:41.592Z,18.24
2019-06-20T00:38:10.751Z,18.27
2019-06-20T00:40:39.954Z,18.25
2019-06-20T00:43:17.407Z,18.22
2019-06-20T00:45:40.027Z,18.13
2019-06-20T00:48:09.178Z,18.10
2019-06-20T00:50:38.358Z,18.07
2019-06-20T00:53:07.574Z,18.09
2019-06-20T00:55:36.733Z,18.12
2019-06-20T00:58:06.693Z,18.10
2019-06-20T01:00:35.831Z,18.08
2019-06-20T01:03:05.496Z,18.13
2019-06-20T01:05:34.658Z,18.15
2019-06-20T01:08:03.871Z,18.16
2019-06-20T01:10:33.035Z,18.21
2019-06-20T01:13:02.290Z,18.20
2019-06-20T01:15:31.431Z,18.20
2019-06-20T01:18:00.630Z,18.23
2019-06-20T01:20:29.785Z,18.24
2019-06-20T01:22:58.955Z,18.23
2019-06-20T01:25:38.766Z,18.20
2019-06-20T01:28:08.016Z,18.18
2019-06-20T01:30:37.164Z,18.18
2019-06-20T01:33:06.652Z,18.14
2019-06-20T01:35:35.833Z,18.16
2019-06-20T01:38:04.966Z,18.23
2019-06-20T01:40:34.161Z,18.27
2019-06-20T01:43:03.445Z,18.29
2019-06-20T01:45:32.625Z,18.24
2019-06-20T01:48:01.798Z,18.18
2019-06-20T01:50:30.920Z,18.13
2019-06-20T01:53:00.250Z,18.09
2019-06-20T01:55:29.484Z,18.05
2019-06-20T01:57:58.651Z,18.01
2019-06-20T02:00:44.817Z,17.95
2019-06-20T02:03:14.573Z,17.93
2019-06-20T02:05:42.801Z,17.88
2019-06-20T02:08:11.983Z,17.83
2019-06-20T02:10:41.171Z,17.79
2019-06-20T02:13:10.310Z,17.78
2019-06-20T02:15:39.483Z,17.72
2019-06-20T02:18:08.979Z,17.69
2019-06-20T02:20:42.231Z,17.67
2019-06-20T02:23:11.356Z,17.68
2019-06-20T02:25:40.514Z,17.67
2019-06-20T02:28:09.669Z,17.67
2019-06-20T02:30:38.844Z,17.67
2019-06-20T02:33:07.969Z,17.66
2019-06-20T02:35:37.154Z,17.66
2019-06-20T02:38:06.325Z,17.63
2019-06-20T02:40:35.574Z,17.62
2019-06-20T02:43:05.098Z,17.60
2019-06-20T02:45:37.656Z,17.57
2019-06-20T02:48:08.118Z,17.57
2019-06-20T02:50:37.292Z,17.58
2019-06-20T02:53:06.628Z,17.56
2019-06-20T02:55:35.794Z,17.56
2019-06-20T02:58:04.968Z,17.56
2019-06-20T03:00:44.574Z,17.55
2019-06-20T03:03:13.729Z,17.54
2019-06-20T03:05:44.941Z,17.53
2019-06-20T03:08:14.100Z,17.54
2019-06-20T03:10:43.251Z,17.53
2019-06-20T03:13:12.409Z,17.53
2019-06-20T03:15:41.611Z,17.52
2019-06-20T03:18:10.767Z,17.54
2019-06-20T03:20:39.971Z,17.54
2019-06-20T03:23:09.113Z,17.53
2019-06-20T03:25:38.306Z,17.55
2019-06-20T03:28:07.477Z,17.56
2019-06-20T03:30:36.652Z,17.60
2019-06-20T03:33:05.808Z,17.65
2019-06-20T03:35:34.967Z,17.70
2019-06-20T03:38:04.200Z,17.74
2019-06-20T03:40:33.422Z,17.79
2019-06-20T03:43:02.742Z,17.86
2019-06-20T03:45:32.939Z,17.95
2019-06-20T03:48:02.057Z,17.97
2019-06-20T03:50:31.312Z,18.00
2019-06-20T03:53:03.242Z,17.99
2019-06-20T03:55:35.278Z,18.02
2019-06-20T03:58:04.439Z,18.06
2019-06-20T04:00:35.156Z,18.06
2019-06-20T04:03:05.988Z,18.07
2019-06-20T04:05:36.006Z,18.07
2019-06-20T04:08:05.226Z,18.13
2019-06-20T04:10:34.933Z,18.20
2019-06-20T04:13:03.157Z,18.26
2019-06-20T04:15:32.550Z,18.32
2019-06-20T04:18:01.686Z,18.40
2019-06-20T04:20:31.951Z,18.41
2019-06-20T04:23:01.312Z,18.43
2019-06-20T04:25:30.612Z,18.42
2019-06-20T04:27:59.932Z,18.42
2019-06-20T04:30:28.980Z,18.40
2019-06-20T04:32:58.174Z,18.43
2019-06-20T04:35:27.336Z,18.42
2019-06-20T04:37:56.608Z,18.40
2019-06-20T04:40:25.953Z,18.39
2019-06-20T04:42:55.058Z,18.44
2019-06-20T04:45:39.721Z,18.38
2019-06-20T04:48:08.844Z,18.36
2019-06-20T04:50:38.022Z,18.43
2019-06-20T04:53:07.164Z,18.55
2019-06-20T04:55:36.702Z,18.67
2019-06-20T04:58:05.848Z,18.85
2019-06-20T05:00:35.030Z,19.01
2019-06-20T05:03:04.796Z,19.16
2019-06-20T05:05:33.980Z,19.26
2019-06-20T05:08:03.170Z,19.42
2019-06-20T05:10:32.445Z,19.53
2019-06-20T05:13:01.610Z,19.55
2019-06-20T05:15:30.763Z,19.52
2019-06-20T05:17:59.900Z,19.48
2019-06-20T05:20:29.093Z,19.46
2019-06-20T05:22:58.235Z,19.46
2019-06-20T05:25:27.399Z,19.46
2019-06-20T05:27:56.447Z,19.44
2019-06-20T05:30:25.709Z,19.43
2019-06-20T05:32:55.226Z,19.40
2019-06-20T05:35:24.386Z,19.40
2019-06-20T05:37:53.613Z,19.42
2019-06-20T05:40:22.762Z,19.40
2019-06-20T05:42:52.288Z,19.43
2019-06-20T05:45:21.686Z,19.41
2019-06-20T05:47:50.865Z,19.43
2019-06-20T05:50:20.038Z,19.46
2019-06-20T05:52:49.198Z,19.53
2019-06-20T05:55:18.345Z,19.62
2019-06-20T05:57:47.581Z,19.68
2019-06-20T06:00:18.464Z,19.77
2019-06-20T06:02:47.838Z,19.89
2019-06-20T06:05:17.006Z,20.13
2019-06-20T06:07:46.236Z,20.60
2019-06-20T06:10:16.123Z,20.60
2019-06-20T06:12:45.358Z,21.42
2019-06-20T06:15:14.679Z,22.46
2019-06-20T06:17:43.905Z,23.19
2019-06-20T06:20:13.495Z,23.39
2019-06-20T06:22:44.745Z,23.24
2019-06-20T06:25:14.519Z,23.09
2019-06-20T06:27:43.766Z,22.74
2019-06-20T06:30:14.727Z,22.52
2019-06-20T06:32:43.952Z,22.32
2019-06-20T06:35:13.214Z,22.15
2019-06-20T06:37:42.353Z,22.12
2019-06-20T06:40:13.195Z,22.45
2019-06-20T06:42:42.374Z,22.75
2019-06-20T06:45:12.666Z,23.06
2019-06-20T06:47:41.896Z,23.29
2019-06-20T06:50:12.841Z,23.38
2019-06-20T06:52:43.143Z,23.75
2019-06-20T06:55:13.159Z,23.71
2019-06-20T06:57:42.337Z,23.52
2019-06-20T07:00:12.012Z,23.44
2019-06-20T07:02:41.155Z,23.41
2019-06-20T07:05:10.805Z,23.49
2019-06-20T07:07:39.964Z,23.62
2019-06-20T07:10:11.116Z,23.81
2019-06-20T07:12:40.875Z,23.73
2019-06-20T07:15:10.612Z,23.97
2019-06-20T07:17:39.749Z,23.97
2019-06-20T07:20:09.803Z,24.07
2019-06-20T07:22:38.982Z,24.10
2019-06-20T07:25:08.715Z,24.68
2019-06-20T07:27:37.889Z,24.84
2019-06-20T07:30:07.644Z,24.83
2019-06-20T07:32:36.915Z,24.96
2019-06-20T07:35:06.427Z,24.92
2019-06-20T07:37:35.548Z,24.81
2019-06-20T07:40:06.203Z,24.98
2019-06-20T07:42:35.395Z,25.27
2019-06-20T07:45:04.214Z,25.26
2019-06-20T07:47:33.483Z,25.20
2019-06-20T07:50:01.835Z,25.14
2019-06-20T07:52:31.497Z,24.98
2019-06-20T07:55:01.201Z,24.70
2019-06-20T07:57:31.124Z,24.60
2019-06-20T08:00:00.828Z,25.15
2019-06-20T08:02:30.141Z,25.82
2019-06-20T08:04:59.566Z,26.23
2019-06-20T08:07:28.884Z,26.44
2019-06-20T08:09:58.063Z,26.61
2019-06-20T08:12:27.248Z,26.75
2019-06-20T08:14:56.409Z,27.06
2019-06-20T08:17:35.230Z,27.15
2019-06-20T08:19:56.515Z,27.51
2019-06-20T08:22:25.814Z,27.61
2019-06-20T08:24:54.988Z,27.78
2019-06-20T08:27:43.144Z,27.25
2019-06-20T08:30:13.915Z,26.86
2019-06-20T08:32:43.418Z,26.44
2019-06-20T08:35:12.647Z,26.48
2019-06-20T08:37:41.880Z,26.31
2019-06-20T08:40:11.268Z,26.42
2019-06-20T08:42:40.464Z,26.46
2019-06-20T08:45:10.048Z,25.98
2019-06-20T08:47:39.238Z,25.82
2019-06-20T08:50:07.546Z,25.81
2019-06-20T08:52:36.693Z,25.89
2019-06-20T08:55:05.507Z,26.13
2019-06-20T08:57:34.841Z,26.44
2019-06-20T09:02:34.585Z,26.44
2019-06-20T09:05:04.042Z,26.30
2019-06-20T09:07:33.329Z,26.54
2019-06-20T09:10:04.170Z,26.94
2019-06-20T09:12:33.522Z,27.37
2019-06-20T09:15:03.252Z,27.60
2019-06-20T09:17:32.567Z,27.49
2019-06-20T09:20:02.909Z,27.27
2019-06-20T09:22:32.298Z,26.75
2019-06-20T09:25:03.001Z,27.24
2019-06-20T09:27:32.295Z,27.31
2019-06-20T09:30:03.299Z,27.35
2019-06-20T09:32:32.358Z,27.62
2019-06-20T09:35:02.916Z,27.98
2019-06-20T09:37:32.265Z,27.94
2019-06-20T09:40:01.444Z,28.48
2019-06-20T09:42:30.600Z,29.01
2019-06-20T09:44:59.794Z,29.02
2019-06-20T09:47:28.969Z,28.44
2019-06-20T09:49:59.025Z,28.94
2019-06-20T09:52:28.283Z,28.98
2019-06-20T09:54:58.309Z,29.07
2019-06-20T09:57:27.732Z,29.50
2019-06-20T10:00:07.644Z,28.99
2019-06-20T10:02:28.221Z,28.46
2019-06-20T10:04:57.451Z,28.03
2019-06-20T10:07:26.732Z,27.63
2019-06-20T10:09:56.312Z,27.59
2019-06-20T10:12:25.629Z,27.30
2019-06-20T10:14:56.159Z,26.93
2019-06-20T10:17:25.484Z,26.73
2019-06-20T10:19:54.081Z,26.47
2019-06-20T10:22:23.316Z,26.43
2019-06-20T10:24:53.543Z,26.54
2019-06-20T10:27:22.750Z,26.56
2019-06-20T10:29:53.501Z,26.67
2019-06-20T10:32:23.370Z,26.65
2019-06-20T10:34:52.769Z,26.29
2019-06-20T10:37:22.079Z,26.18
2019-06-20T10:39:52.126Z,26.11
2019-06-20T10:42:21.412Z,26.10
2019-06-20T10:44:49.794Z,26.19
2019-06-20T10:47:31.632Z,26.14
2019-06-20T10:49:50.360Z,26.23
2019-06-20T10:52:19.705Z,26.26
2019-06-20T10:54:49.263Z,26.65
2019-06-20T10:57:18.603Z,27.06
2019-06-20T10:59:48.384Z,27.55
2019-06-20T11:02:17.621Z,27.76
2019-06-20T11:04:45.877Z,27.80
2019-06-20T11:07:15.194Z,27.91
2019-06-20T11:09:43.398Z,27.92
2019-06-20T11:12:12.556Z,27.70
2019-06-20T11:14:42.123Z,27.43
2019-06-20T11:17:11.424Z,27.57
2019-06-20T11:19:39.829Z,27.75
2019-06-20T11:22:08.981Z,27.71
2019-06-20T11:24:39.200Z,27.81
2019-06-20T11:27:08.524Z,27.39
2019-06-20T11:29:37.896Z,27.63
2019-06-20T11:32:07.359Z,27.74
2019-06-20T11:34:37.722Z,28.12
2019-06-20T11:37:06.513Z,28.06
2019-06-20T11:39:58.097Z,28.32
2019-06-20T11:42:27.345Z,28.32
2019-06-20T11:44:55.587Z,28.35
2019-06-20T11:47:24.796Z,28.34
2019-06-20T11:49:54.089Z,28.38
2019-06-20T11:52:22.502Z,28.66
2019-06-20T11:54:51.828Z,28.93
2019-06-20T11:57:21.274Z,28.56
2019-06-20T11:59:53.398Z,28.82
2019-06-20T12:02:22.708Z,28.82
2019-06-20T12:04:51.877Z,28.25
2019-06-20T12:07:20.140Z,28.14
2019-06-20T12:09:49.323Z,28.31
2019-06-20T12:12:17.618Z,28.28
2019-06-20T12:14:46.907Z,27.98
2019-06-20T12:17:15.168Z,27.73
2019-06-20T12:19:44.630Z,27.52
2019-06-20T12:22:14.018Z,27.49
2019-06-20T12:24:44.490Z,27.62
2019-06-20T12:27:13.813Z,27.66
2019-06-20T12:29:44.126Z,27.60
2019-06-20T12:32:13.704Z,27.51
2019-06-20T12:34:42.898Z,27.66
2019-06-20T12:37:11.102Z,27.82
2019-06-20T12:39:40.434Z,27.90
2019-06-20T12:42:08.612Z,28.17
2019-06-20T12:44:38.992Z,28.29
2019-06-20T12:47:08.779Z,28.65
2019-06-20T12:49:37.317Z,28.88
2019-06-20T12:52:07.740Z,28.97
2019-06-20T12:54:36.106Z,28.92
2019-06-20T12:57:05.450Z,28.71
2019-06-20T12:59:35.119Z,28.60
2019-06-20T13:02:04.396Z,28.46
2019-06-20T13:04:32.791Z,28.68
2019-06-20T13:07:01.981Z,28.54
2019-06-20T13:09:31.191Z,28.82
2019-06-20T13:11:59.512Z,28.82
2019-06-20T13:14:28.706Z,28.99
2019-06-20T13:16:57.991Z,28.98
2019-06-20T13:19:26.200Z,28.86
2019-06-20T13:21:55.470Z,28.80
2019-06-20T13:24:23.774Z,28.21
2019-06-20T13:26:53.788Z,28.30
2019-06-20T13:29:23.084Z,28.51
2019-06-20T13:32:03.220Z,28.40
2019-06-20T13:34:23.340Z,28.27
2019-06-20T13:36:51.568Z,28.70
2019-06-20T13:39:20.928Z,29.09
2019-06-20T13:41:50.363Z,28.79
2019-06-20T13:44:19.642Z,28.07
2019-06-20T13:46:48.973Z,28.42
2019-06-20T13:49:18.331Z,28.24
2019-06-20T13:51:47.781Z,27.75
2019-06-20T13:54:17.124Z,27.70
2019-06-20T13:56:47.517Z,27.80
2019-06-20T13:59:16.812Z,27.88
2019-06-20T14:01:46.109Z,27.99
2019-06-20T14:04:16.020Z,28.14
2019-06-20T14:06:45.399Z,28.39
2019-06-20T14:09:14.786Z,28.70
2019-06-20T14:11:45.338Z,28.75
2019-06-20T14:14:14.699Z,28.76
2019-06-20T14:16:43.053Z,28.81
2019-06-20T14:19:12.414Z,28.71
2019-06-20T14:21:40.743Z,28.67
2019-06-20T14:24:10.131Z,28.55
2019-06-20T14:26:38.298Z,28.66
2019-06-20T14:29:07.535Z,28.60
2019-06-20T14:31:36.826Z,28.58
2019-06-20T14:34:05.160Z,28.64
2019-06-20T14:36:34.676Z,28.63
2019-06-20T14:39:05.273Z,28.58
2019-06-20T14:41:34.497Z,28.45
2019-06-20T14:44:03.770Z,27.98
2019-06-20T14:46:32.100Z,27.69
2019-06-20T14:49:01.304Z,27.78
2019-06-20T14:51:29.506Z,28.07
2019-06-20T14:53:58.766Z,28.17
2019-06-20T14:56:27.011Z,28.17
2019-06-20T14:58:56.214Z,28.44
2019-06-20T15:01:25.414Z,28.70
2019-06-20T15:03:55.925Z,28.66
2019-06-20T15:06:25.268Z,28.84
2019-06-20T15:09:01.223Z,28.84
2019-06-20T15:11:25.653Z,28.88
2019-06-20T15:13:55.496Z,28.81
2019-06-20T15:16:24.784Z,28.71
2019-06-20T15:18:54.145Z,28.51
2019-06-20T15:21:24.023Z,28.58
2019-06-20T15:23:52.588Z,28.71
2019-06-20T15:26:21.841Z,28.82
2019-06-20T15:28:53.246Z,28.86
2019-06-20T15:31:22.036Z,28.82
2019-06-20T15:33:51.618Z,28.73
2019-06-20T15:36:22.185Z,28.61
2019-06-20T15:38:51.358Z,28.63
2019-06-20T15:41:20.658Z,28.60
2019-06-20T15:43:49.846Z,28.65
2019-06-20T15:46:19.415Z,28.56
2019-06-20T15:48:47.680Z,28.59
2019-06-20T15:51:17.059Z,28.49
2019-06-20T15:53:46.334Z,28.55
2019-06-20T15:56:14.570Z,28.55
2019-06-20T15:58:43.814Z,28.56
2019-06-20T16:01:11.970Z,28.15
2019-06-20T16:03:41.413Z,28.15
2019-06-20T16:06:10.595Z,28.28
2019-06-20T16:08:39.814Z,28.27
2019-06-20T16:11:09.027Z,28.35
2019-06-20T16:13:37.326Z,28.32
2019-06-20T16:16:06.534Z,28.16
2019-06-20T16:18:35.817Z,28.11
2019-06-20T16:21:04.993Z,28.11
2019-06-20T16:23:34.186Z,28.14
2019-06-20T16:26:03.310Z,27.68
2019-06-20T16:28:32.566Z,27.54
2019-06-20T16:31:10.154Z,27.76
2019-06-20T16:33:31.666Z,27.88
2019-06-20T16:36:00.864Z,28.08
2019-06-20T16:38:30.044Z,28.17
2019-06-20T16:40:59.365Z,28.18
2019-06-20T16:43:27.721Z,27.75
2019-06-20T16:45:56.902Z,27.82
2019-06-20T16:48:26.283Z,27.89
2019-06-20T16:50:54.521Z,27.73
2019-06-20T16:53:23.733Z,27.74
2019-06-20T16:55:53.131Z,27.76
2019-06-20T16:58:22.677Z,27.64
2019-06-20T17:00:51.935Z,27.73
2019-06-20T17:03:20.243Z,27.64
2019-06-20T17:05:49.636Z,27.38
2019-06-20T17:08:22.053Z,27.17
2019-06-20T17:10:52.210Z,26.99
2019-06-20T17:13:22.036Z,26.90
2019-06-20T17:15:51.501Z,26.92
2019-06-20T17:18:21.299Z,26.77
2019-06-20T17:20:50.852Z,26.74
2019-06-20T17:23:20.118Z,26.64
2019-06-20T17:25:49.606Z,26.52
2019-06-20T17:28:20.299Z,26.49
2019-06-20T17:30:51.306Z,26.41
2019-06-20T17:33:22.707Z,26.32
2019-06-20T17:35:54.914Z,26.24
2019-06-20T17:38:28.839Z,26.24
2019-06-20T17:41:04.913Z,26.17
2019-06-20T17:43:34.087Z,26.09
2019-06-20T17:46:03.333Z,26.03
2019-06-20T17:48:32.471Z,26.01
2019-06-20T17:51:01.715Z,25.94
2019-06-20T17:53:30.955Z,25.87
2019-06-20T17:56:00.193Z,25.81
2019-06-20T17:58:29.724Z,25.70
2019-06-20T18:00:58.916Z,25.63
2019-06-20T18:03:28.205Z,25.59
2019-06-20T18:05:57.369Z,25.53
2019-06-20T18:08:26.598Z,25.43
2019-06-20T18:10:56.029Z,25.39
2019-06-20T18:13:25.331Z,25.35
2019-06-20T18:15:54.688Z,25.30
2019-06-20T18:18:22.862Z,25.24
2019-06-20T18:20:52.024Z,25.22
2019-06-20T18:23:21.518Z,25.17
2019-06-20T18:25:49.780Z,25.15
2019-06-20T18:28:21.255Z,25.09
2019-06-20T18:30:50.468Z,24.96
2019-06-20T18:33:19.789Z,24.88
2019-06-20T18:35:49.206Z,24.77
2019-06-20T18:38:17.671Z,24.53
2019-06-20T18:40:47.539Z,24.30
2019-06-20T18:43:16.898Z,24.11
2019-06-20T18:45:46.359Z,24.12
2019-06-20T18:48:15.680Z,24.08
2019-06-20T18:50:44.903Z,24.02
2019-06-20T18:53:14.050Z,23.99
2019-06-20T18:55:44.063Z,23.94
2019-06-20T18:58:13.283Z,23.83
2019-06-20T19:00:42.481Z,23.83
2019-06-20T19:03:11.676Z,23.80
2019-06-20T19:05:41.140Z,23.70
2019-06-20T19:08:09.387Z,23.73
2019-06-20T19:10:38.544Z,23.70
2019-06-20T19:13:07.731Z,23.66
2019-06-20T19:15:36.889Z,23.63
2019-06-20T19:18:06.064Z,23.64
2019-06-20T19:20:35.275Z,23.61
2019-06-20T19:23:04.470Z,23.64
2019-06-20T19:25:33.653Z,23.58
2019-06-20T19:28:02.928Z,23.57
2019-06-20T19:30:45.805Z,23.42
2019-06-20T19:33:15.355Z,23.07
2019-06-20T19:35:43.636Z,22.57
2019-06-20T19:38:12.914Z,21.99
2019-06-20T19:40:45.772Z,21.26
2019-06-20T19:43:15.040Z,20.79
2019-06-20T19:45:44.752Z,20.67
2019-06-20T19:48:13.523Z,20.63
2019-06-20T19:50:43.372Z,20.71
2019-06-20T19:53:13.508Z,20.71
2019-06-20T19:55:43.087Z,20.73
2019-06-20T19:58:12.607Z,20.76
2019-06-20T20:00:41.931Z,20.77
2019-06-20T20:03:11.145Z,20.78
2019-06-20T20:05:40.661Z,20.71
2019-06-20T20:08:10.059Z,20.39
2019-06-20T20:10:44.401Z,20.12
2019-06-20T20:13:15.443Z,19.80
2019-06-20T20:15:45.027Z,19.64
2019-06-20T20:18:13.842Z,19.62
2019-06-20T20:21:03.468Z,19.45
2019-06-20T20:23:31.658Z,19.38
2019-06-20T20:26:01.197Z,19.22
2019-06-20T20:28:30.348Z,19.18
2019-06-20T20:30:59.870Z,19.14
2019-06-20T20:33:29.053Z,19.20
2019-06-20T20:36:01.723Z,19.09
2019-06-20T20:38:29.185Z,19.13
2019-06-20T20:40:58.468Z,19.14
2019-06-20T20:43:27.679Z,19.14
2019-06-20T20:45:57.349Z,19.15
2019-06-20T20:48:25.554Z,19.19
2019-06-20T20:50:55.526Z,19.31
2019-06-20T20:53:24.845Z,19.31
2019-06-20T20:56:02.482Z,19.26
2019-06-20T20:58:31.926Z,19.23
2019-06-20T21:01:23.076Z,19.22
2019-06-20T21:03:52.253Z,19.23
2019-06-20T21:06:24.594Z,19.20
2019-06-20T21:08:54.115Z,19.19
2019-06-20T21:11:23.382Z,19.15
2019-06-20T21:13:52.849Z,19.19
2019-06-20T21:16:24.363Z,19.21
2019-06-20T21:18:55.736Z,19.22
2019-06-20T21:21:25.370Z,19.23
2019-06-20T21:23:54.594Z,19.24
2019-06-20T21:26:23.785Z,19.26
2019-06-20T21:28:53.017Z,19.22
2019-06-20T21:31:22.191Z,19.11
2019-06-20T21:33:54.327Z,19.00
2019-06-20T21:36:23.374Z,18.89
2019-06-20T21:38:52.654Z,18.86
2019-06-20T21:41:21.776Z,18.80
2019-06-20T21:43:51.055Z,18.81
2019-06-20T21:46:20.312Z,18.76
2019-06-20T21:48:49.488Z,18.82
2019-06-20T21:51:18.698Z,18.86
2019-06-20T21:53:47.761Z,18.93
2019-06-20T21:56:16.996Z,19.03
2019-06-20T21:58:46.123Z,19.09
2019-06-20T22:01:16.104Z,19.18
2019-06-20T22:03:45.274Z,19.14
2019-06-20T22:06:23.652Z,19.18
2019-06-20T22:08:47.407Z,19.21
2019-06-20T22:11:16.571Z,19.23
2019-06-20T22:13:46.989Z,19.24
2019-06-20T22:16:16.153Z,19.27
2019-06-20T22:18:45.337Z,19.26
2019-06-20T22:21:14.506Z,19.28
2019-06-20T22:23:43.691Z,19.28
2019-06-20T22:26:12.839Z,19.29
2019-06-20T22:28:42.004Z,19.26
2019-06-20T22:31:11.209Z,19.25
2019-06-20T22:33:40.561Z,19.21
2019-06-20T22:36:09.832Z,19.21
2019-06-20T22:38:38.959Z,19.16
2019-06-20T22:41:08.149Z,19.14
2019-06-20T22:43:37.218Z,19.07
2019-06-20T22:46:06.407Z,18.98
2019-06-20T22:48:35.527Z,18.96
2019-06-20T22:51:04.721Z,19.00
2019-06-20T22:53:33.951Z,18.88
2019-06-20T22:56:03.146Z,18.89
2019-06-20T22:58:32.340Z,18.87
2019-06-20T23:01:01.876Z,18.82
2019-06-20T23:03:30.178Z,18.76
2019-06-20T23:05:59.377Z,18.76
2019-06-20T23:08:28.551Z,18.71
2019-06-20T23:10:57.765Z,18.71
2019-06-20T23:13:26.962Z,18.66
2019-06-20T23:15:56.100Z,18.63
2019-06-20T23:18:25.244Z,18.62
2019-06-20T23:21:04.673Z,18.64
2019-06-20T23:23:25.296Z,18.60
2019-06-20T23:25:56.253Z,18.58
2019-06-20T23:28:25.438Z,18.62
2019-06-20T23:30:54.584Z,18.64
2019-06-20T23:33:23.713Z,18.63
2019-06-20T23:35:52.915Z,18.61
2019-06-20T23:38:22.070Z,18.66
2019-06-20T23:40:51.303Z,18.65
2019-06-20T23:43:20.547Z,18.70
2019-06-20T23:45:49.751Z,18.75
2019-06-20T23:48:18.921Z,18.75
2019-06-20T23:50:48.054Z,18.71
2019-06-20T23:53:22.005Z,18.68
2019-06-20T23:55:51.250Z,18.62
2019-06-20T23:58:20.404Z,18.55
